sensor_id;sensor_type;location;lat;lon;timestamp;P1;durP1;ratioP1;P2;durP2;ratioP2
46437;SDS011;32137;48.728;9.142;2023-03-01T00:01:13;25.55;;;14.55;;
46437;SDS011;32137;48.728;9.142;2023-03-01T00:03:41;29.67;;;15.43;;
46437;SDS011;32137;48.728;9.142;2023-03-01T00:06:07;25.83;;;14.25;;
46437;SDS011;32137;48.728;9.142;2023-03-01T00:08:32;27.33;;;16.05;;
46437;SDS011;32137;48.728;9.142;2023-03-01T00:11:18;30.10;;;15.32;;
46437;SDS011;32137;48.728;9.142;2023-03-01T00:13:52;31.98;;;15.93;;
46437;SDS011;32137;48.728;9.142;2023-03-01T00:16:23;28.48;;;16.00;;
46437;SDS011;32137;48.728;9.142;2023-03-01T00:18:58;23.52;;;14.68;;
46437;SDS011;32137;48.728;9.142;2023-03-01T00:21:24;30.15;;;16.10;;
46437;SDS011;32137;48.728;9.142;2023-03-01T00:23:50;29.42;;;14.40;;
46437;SDS011;32137;48.728;9.142;2023-03-01T00:26:17;29.13;;;15.15;;
46437;SDS011;32137;48.728;9.142;2023-03-01T00:28:44;28.90;;;16.10;;
46437;SDS011;32137;48.728;9.142;2023-03-01T00:31:14;35.92;;;15.88;;
46437;SDS011;32137;48.728;9.142;2023-03-01T00:33:41;31.17;;;15.90;;
46437;SDS011;32137;48.728;9.142;2023-03-01T00:36:08;34.85;;;18.45;;
46437;SDS011;32137;48.728;9.142;2023-03-01T00:38:35;35.40;;;15.77;;
46437;SDS011;32137;48.728;9.142;2023-03-01T00:41:05;37.55;;;16.55;;
46437;SDS011;32137;48.728;9.142;2023-03-01T00:43:31;25.55;;;15.75;;
46437;SDS011;32137;48.728;9.142;2023-03-01T00:46:01;32.53;;;16.30;;
46437;SDS011;32137;48.728;9.142;2023-03-01T00:48:31;30.92;;;15.88;;
46437;SDS011;32137;48.728;9.142;2023-03-01T00:50:57;36.25;;;17.33;;
46437;SDS011;32137;48.728;9.142;2023-03-01T00:53:30;33.10;;;17.10;;
46437;SDS011;32137;48.728;9.142;2023-03-01T00:55:56;29.23;;;16.08;;
46437;SDS011;32137;48.728;9.142;2023-03-01T00:58:22;32.30;;;14.82;;
46437;SDS011;32137;48.728;9.142;2023-03-01T01:00:48;35.78;;;18.00;;
46437;SDS011;32137;48.728;9.142;2023-03-01T01:03:14;30.17;;;15.18;;
46437;SDS011;32137;48.728;9.142;2023-03-01T01:05:39;28.50;;;16.20;;
46437;SDS011;32137;48.728;9.142;2023-03-01T01:08:05;31.40;;;15.07;;
46437;SDS011;32137;48.728;9.142;2023-03-01T01:10:30;32.25;;;16.42;;
46437;SDS011;32137;48.728;9.142;2023-03-01T01:12:58;27.70;;;16.30;;
46437;SDS011;32137;48.728;9.142;2023-03-01T01:15:23;30.50;;;17.90;;
46437;SDS011;32137;48.728;9.142;2023-03-01T01:17:49;37.47;;;17.85;;
46437;SDS011;32137;48.728;9.142;2023-03-01T01:20:14;30.52;;;16.38;;
46437;SDS011;32137;48.728;9.142;2023-03-01T01:22:40;32.83;;;16.73;;
46437;SDS011;32137;48.728;9.142;2023-03-01T01:25:05;28.98;;;15.70;;
46437;SDS011;32137;48.728;9.142;2023-03-01T01:27:31;28.85;;;16.13;;
46437;SDS011;32137;48.728;9.142;2023-03-01T01:29:56;33.20;;;15.63;;
46437;SDS011;32137;48.728;9.142;2023-03-01T01:32:22;27.60;;;14.18;;
46437;SDS011;32137;48.728;9.142;2023-03-01T01:34:48;28.77;;;14.18;;
46437;SDS011;32137;48.728;9.142;2023-03-01T01:37:13;27.58;;;14.93;;
46437;SDS011;32137;48.728;9.142;2023-03-01T01:39:39;32.42;;;15.30;;
46437;SDS011;32137;48.728;9.142;2023-03-01T01:42:04;28.13;;;15.02;;
46437;SDS011;32137;48.728;9.142;2023-03-01T01:44:30;30.20;;;16.48;;
46437;SDS011;32137;48.728;9.142;2023-03-01T01:46:59;30.50;;;16.05;;
46437;SDS011;32137;48.728;9.142;2023-03-01T01:51:57;25.42;;;14.35;;
46437;SDS011;32137;48.728;9.142;2023-03-01T01:59:47;27.25;;;15.43;;
46437;SDS011;32137;48.728;9.142;2023-03-01T02:02:17;27.67;;;15.18;;
46437;SDS011;32137;48.728;9.142;2023-03-01T02:04:43;29.42;;;16.30;;
46437;SDS011;32137;48.728;9.142;2023-03-01T02:07:17;29.92;;;15.45;;
46437;SDS011;32137;48.728;9.142;2023-03-01T02:09:46;32.50;;;17.65;;
46437;SDS011;32137;48.728;9.142;2023-03-01T02:12:14;31.05;;;16.73;;
46437;SDS011;32137;48.728;9.142;2023-03-01T02:14:45;30.48;;;15.20;;
46437;SDS011;32137;48.728;9.142;2023-03-01T02:17:11;31.45;;;16.00;;
46437;SDS011;32137;48.728;9.142;2023-03-01T02:19:55;25.58;;;15.07;;
46437;SDS011;32137;48.728;9.142;2023-03-01T02:22:32;30.80;;;15.43;;
46437;SDS011;32137;48.728;9.142;2023-03-01T02:27:33;29.80;;;14.63;;
46437;SDS011;32137;48.728;9.142;2023-03-01T02:30:05;27.60;;;14.90;;
46437;SDS011;32137;48.728;9.142;2023-03-01T02:32:32;27.23;;;15.27;;
46437;SDS011;32137;48.728;9.142;2023-03-01T02:34:59;26.77;;;15.10;;
46437;SDS011;32137;48.728;9.142;2023-03-01T02:37:24;30.95;;;16.52;;
46437;SDS011;32137;48.728;9.142;2023-03-01T02:39:58;28.58;;;16.33;;
46437;SDS011;32137;48.728;9.142;2023-03-01T02:42:30;30.95;;;17.48;;
46437;SDS011;32137;48.728;9.142;2023-03-01T02:45:00;30.45;;;16.23;;
46437;SDS011;32137;48.728;9.142;2023-03-01T02:47:26;31.35;;;17.20;;
46437;SDS011;32137;48.728;9.142;2023-03-01T02:49:51;29.95;;;17.17;;
46437;SDS011;32137;48.728;9.142;2023-03-01T02:52:32;33.42;;;18.60;;
46437;SDS011;32137;48.728;9.142;2023-03-01T02:55:11;29.08;;;14.63;;
46437;SDS011;32137;48.728;9.142;2023-03-01T02:57:40;34.03;;;17.13;;
46437;SDS011;32137;48.728;9.142;2023-03-01T03:00:09;24.38;;;14.73;;
46437;SDS011;32137;48.728;9.142;2023-03-01T03:02:46;29.50;;;17.30;;
46437;SDS011;32137;48.728;9.142;2023-03-01T03:05:21;28.55;;;15.02;;
46437;SDS011;32137;48.728;9.142;2023-03-01T03:07:57;28.15;;;15.43;;
46437;SDS011;32137;48.728;9.142;2023-03-01T03:10:25;32.65;;;17.25;;
46437;SDS011;32137;48.728;9.142;2023-03-01T03:12:53;32.60;;;16.90;;
46437;SDS011;32137;48.728;9.142;2023-03-01T03:17:50;26.33;;;15.68;;
46437;SDS011;32137;48.728;9.142;2023-03-01T03:20:18;31.23;;;15.23;;
46437;SDS011;32137;48.728;9.142;2023-03-01T03:22:46;31.30;;;16.73;;
46437;SDS011;32137;48.728;9.142;2023-03-01T03:25:16;31.87;;;17.10;;
46437;SDS011;32137;48.728;9.142;2023-03-01T03:27:43;27.42;;;15.50;;
46437;SDS011;32137;48.728;9.142;2023-03-01T03:30:10;32.22;;;16.33;;
46437;SDS011;32137;48.728;9.142;2023-03-01T03:32:39;32.67;;;15.77;;
46437;SDS011;32137;48.728;9.142;2023-03-01T03:35:05;31.80;;;17.33;;
46437;SDS011;32137;48.728;9.142;2023-03-01T03:37:38;29.88;;;17.88;;
46437;SDS011;32137;48.728;9.142;2023-03-01T03:40:23;29.05;;;16.85;;
46437;SDS011;32137;48.728;9.142;2023-03-01T03:42:49;28.00;;;16.52;;
46437;SDS011;32137;48.728;9.142;2023-03-01T03:45:15;31.23;;;16.85;;
46437;SDS011;32137;48.728;9.142;2023-03-01T03:47:42;29.85;;;16.05;;
46437;SDS011;32137;48.728;9.142;2023-03-01T03:50:08;30.85;;;18.08;;
46437;SDS011;32137;48.728;9.142;2023-03-01T03:52:35;32.30;;;16.58;;
46437;SDS011;32137;48.728;9.142;2023-03-01T03:55:00;33.78;;;18.38;;
46437;SDS011;32137;48.728;9.142;2023-03-01T03:57:26;34.10;;;17.13;;
46437;SDS011;32137;48.728;9.142;2023-03-01T03:59:51;32.75;;;17.38;;
46437;SDS011;32137;48.728;9.142;2023-03-01T04:02:17;26.65;;;14.93;;
46437;SDS011;32137;48.728;9.142;2023-03-01T04:04:47;33.42;;;16.77;;
46437;SDS011;32137;48.728;9.142;2023-03-01T04:07:14;31.92;;;15.95;;
46437;SDS011;32137;48.728;9.142;2023-03-01T04:09:40;37.83;;;17.90;;
46437;SDS011;32137;48.728;9.142;2023-03-01T04:12:08;25.90;;;14.60;;
46437;SDS011;32137;48.728;9.142;2023-03-01T04:14:35;31.08;;;17.40;;
46437;SDS011;32137;48.728;9.142;2023-03-01T04:17:01;31.23;;;17.10;;
46437;SDS011;32137;48.728;9.142;2023-03-01T04:19:29;33.42;;;16.02;;
46437;SDS011;32137;48.728;9.142;2023-03-01T04:22:04;34.15;;;17.45;;
46437;SDS011;32137;48.728;9.142;2023-03-01T04:24:34;32.33;;;17.02;;
46437;SDS011;32137;48.728;9.142;2023-03-01T04:27:00;30.50;;;18.00;;
46437;SDS011;32137;48.728;9.142;2023-03-01T04:29:26;33.03;;;16.83;;
46437;SDS011;32137;48.728;9.142;2023-03-01T04:31:51;33.67;;;17.80;;
46437;SDS011;32137;48.728;9.142;2023-03-01T04:34:20;31.73;;;17.52;;
46437;SDS011;32137;48.728;9.142;2023-03-01T04:36:45;33.75;;;18.65;;
46437;SDS011;32137;48.728;9.142;2023-03-01T04:39:11;31.95;;;17.80;;
46437;SDS011;32137;48.728;9.142;2023-03-01T04:41:39;33.25;;;16.65;;
46437;SDS011;32137;48.728;9.142;2023-03-01T04:44:06;30.42;;;18.17;;
46437;SDS011;32137;48.728;9.142;2023-03-01T04:46:34;35.30;;;17.10;;
46437;SDS011;32137;48.728;9.142;2023-03-01T04:48:59;36.22;;;19.45;;
46437;SDS011;32137;48.728;9.142;2023-03-01T04:51:25;29.92;;;18.00;;
46437;SDS011;32137;48.728;9.142;2023-03-01T04:53:50;30.98;;;18.42;;
46437;SDS011;32137;48.728;9.142;2023-03-01T04:56:16;32.70;;;16.60;;
46437;SDS011;32137;48.728;9.142;2023-03-01T04:58:45;28.90;;;14.95;;
46437;SDS011;32137;48.728;9.142;2023-03-01T05:01:12;31.85;;;17.10;;
46437;SDS011;32137;48.728;9.142;2023-03-01T05:03:43;31.20;;;17.55;;
46437;SDS011;32137;48.728;9.142;2023-03-01T05:06:09;38.30;;;17.00;;
46437;SDS011;32137;48.728;9.142;2023-03-01T05:08:35;36.67;;;17.73;;
46437;SDS011;32137;48.728;9.142;2023-03-01T05:11:02;32.88;;;17.63;;
46437;SDS011;32137;48.728;9.142;2023-03-01T05:13:28;38.55;;;17.00;;
46437;SDS011;32137;48.728;9.142;2023-03-01T05:15:57;29.95;;;16.92;;
46437;SDS011;32137;48.728;9.142;2023-03-01T05:18:25;35.43;;;19.20;;
46437;SDS011;32137;48.728;9.142;2023-03-01T05:20:54;35.05;;;17.75;;
46437;SDS011;32137;48.728;9.142;2023-03-01T05:23:23;32.08;;;17.73;;
46437;SDS011;32137;48.728;9.142;2023-03-01T05:25:49;37.25;;;17.92;;
46437;SDS011;32137;48.728;9.142;2023-03-01T05:28:17;35.20;;;17.23;;
46437;SDS011;32137;48.728;9.142;2023-03-01T05:30:45;29.38;;;16.40;;
46437;SDS011;32137;48.728;9.142;2023-03-01T05:33:11;36.95;;;17.20;;
46437;SDS011;32137;48.728;9.142;2023-03-01T05:35:41;38.10;;;17.33;;
46437;SDS011;32137;48.728;9.142;2023-03-01T05:38:10;35.22;;;17.58;;
46437;SDS011;32137;48.728;9.142;2023-03-01T05:40:39;37.13;;;18.20;;
46437;SDS011;32137;48.728;9.142;2023-03-01T05:43:06;32.58;;;17.95;;
46437;SDS011;32137;48.728;9.142;2023-03-01T05:45:32;36.30;;;17.30;;
46437;SDS011;32137;48.728;9.142;2023-03-01T05:47:58;36.35;;;17.65;;
46437;SDS011;32137;48.728;9.142;2023-03-01T05:50:27;36.50;;;17.30;;
46437;SDS011;32137;48.728;9.142;2023-03-01T05:53:04;27.00;;;13.57;;
46437;SDS011;32137;48.728;9.142;2023-03-01T05:55:31;34.28;;;18.65;;
46437;SDS011;32137;48.728;9.142;2023-03-01T05:57:58;31.15;;;17.30;;
46437;SDS011;32137;48.728;9.142;2023-03-01T06:00:29;37.03;;;17.00;;
46437;SDS011;32137;48.728;9.142;2023-03-01T06:02:56;32.83;;;17.33;;
46437;SDS011;32137;48.728;9.142;2023-03-01T06:05:23;34.50;;;17.58;;
46437;SDS011;32137;48.728;9.142;2023-03-01T06:07:49;32.90;;;17.52;;
46437;SDS011;32137;48.728;9.142;2023-03-01T06:10:16;39.35;;;21.33;;
46437;SDS011;32137;48.728;9.142;2023-03-01T06:12:43;37.65;;;19.85;;
46437;SDS011;32137;48.728;9.142;2023-03-01T06:15:10;42.42;;;22.85;;
46437;SDS011;32137;48.728;9.142;2023-03-01T06:17:38;35.45;;;17.10;;
46437;SDS011;32137;48.728;9.142;2023-03-01T06:20:06;35.42;;;19.77;;
46437;SDS011;32137;48.728;9.142;2023-03-01T06:22:35;33.60;;;17.50;;
46437;SDS011;32137;48.728;9.142;2023-03-01T06:25:01;35.22;;;17.08;;
46437;SDS011;32137;48.728;9.142;2023-03-01T06:27:27;37.97;;;19.00;;
46437;SDS011;32137;48.728;9.142;2023-03-01T06:29:53;33.90;;;16.98;;
46437;SDS011;32137;48.728;9.142;2023-03-01T06:32:18;44.75;;;20.02;;
46437;SDS011;32137;48.728;9.142;2023-03-01T06:34:44;36.50;;;19.88;;
46437;SDS011;32137;48.728;9.142;2023-03-01T06:37:10;36.53;;;18.70;;
46437;SDS011;32137;48.728;9.142;2023-03-01T06:39:35;35.35;;;19.45;;
46437;SDS011;32137;48.728;9.142;2023-03-01T06:42:01;36.25;;;18.27;;
46437;SDS011;32137;48.728;9.142;2023-03-01T06:44:27;35.28;;;19.13;;
46437;SDS011;32137;48.728;9.142;2023-03-01T06:46:53;34.72;;;18.25;;
46437;SDS011;32137;48.728;9.142;2023-03-01T06:49:19;34.03;;;17.25;;
46437;SDS011;32137;48.728;9.142;2023-03-01T06:51:45;34.15;;;19.23;;
46437;SDS011;32137;48.728;9.142;2023-03-01T06:54:11;28.42;;;16.88;;
46437;SDS011;32137;48.728;9.142;2023-03-01T06:56:37;33.67;;;17.90;;
46437;SDS011;32137;48.728;9.142;2023-03-01T06:59:02;35.53;;;18.60;;
46437;SDS011;32137;48.728;9.142;2023-03-01T07:01:29;32.17;;;18.02;;
46437;SDS011;32137;48.728;9.142;2023-03-01T07:03:55;37.63;;;19.50;;
46437;SDS011;32137;48.728;9.142;2023-03-01T07:06:21;39.28;;;17.55;;
46437;SDS011;32137;48.728;9.142;2023-03-01T07:08:47;34.22;;;16.80;;
46437;SDS011;32137;48.728;9.142;2023-03-01T07:11:13;35.45;;;18.42;;
46437;SDS011;32137;48.728;9.142;2023-03-01T07:13:38;31.15;;;17.27;;
46437;SDS011;32137;48.728;9.142;2023-03-01T07:16:04;33.70;;;18.75;;
46437;SDS011;32137;48.728;9.142;2023-03-01T07:18:31;41.55;;;19.35;;
46437;SDS011;32137;48.728;9.142;2023-03-01T07:20:56;36.65;;;16.95;;
46437;SDS011;32137;48.728;9.142;2023-03-01T07:23:22;37.10;;;20.25;;
46437;SDS011;32137;48.728;9.142;2023-03-01T07:25:51;31.85;;;18.67;;
46437;SDS011;32137;48.728;9.142;2023-03-01T07:28:19;33.47;;;18.42;;
46437;SDS011;32137;48.728;9.142;2023-03-01T07:30:45;32.83;;;18.00;;
46437;SDS011;32137;48.728;9.142;2023-03-01T07:33:11;34.10;;;18.58;;
46437;SDS011;32137;48.728;9.142;2023-03-01T07:35:36;50.05;;;20.27;;
46437;SDS011;32137;48.728;9.142;2023-03-01T07:38:02;35.05;;;16.55;;
46437;SDS011;32137;48.728;9.142;2023-03-01T07:40:27;39.08;;;20.08;;
46437;SDS011;32137;48.728;9.142;2023-03-01T07:42:56;37.80;;;20.38;;
46437;SDS011;32137;48.728;9.142;2023-03-01T07:45:23;39.80;;;19.15;;
46437;SDS011;32137;48.728;9.142;2023-03-01T07:47:50;34.28;;;18.00;;
46437;SDS011;32137;48.728;9.142;2023-03-01T07:50:16;34.20;;;20.30;;
46437;SDS011;32137;48.728;9.142;2023-03-01T07:52:44;43.03;;;20.45;;
46437;SDS011;32137;48.728;9.142;2023-03-01T07:55:10;39.50;;;19.10;;
46437;SDS011;32137;48.728;9.142;2023-03-01T07:57:35;34.03;;;19.02;;
46437;SDS011;32137;48.728;9.142;2023-03-01T08:00:01;32.92;;;17.95;;
46437;SDS011;32137;48.728;9.142;2023-03-01T08:02:26;38.65;;;18.85;;
46437;SDS011;32137;48.728;9.142;2023-03-01T08:04:52;37.63;;;19.20;;
46437;SDS011;32137;48.728;9.142;2023-03-01T08:07:18;41.00;;;20.60;;
46437;SDS011;32137;48.728;9.142;2023-03-01T08:09:43;37.22;;;19.48;;
46437;SDS011;32137;48.728;9.142;2023-03-01T08:12:09;39.85;;;17.77;;
46437;SDS011;32137;48.728;9.142;2023-03-01T08:14:34;36.55;;;19.48;;
46437;SDS011;32137;48.728;9.142;2023-03-01T08:17:00;40.53;;;20.33;;
46437;SDS011;32137;48.728;9.142;2023-03-01T08:19:27;35.63;;;20.40;;
46437;SDS011;32137;48.728;9.142;2023-03-01T08:21:53;35.38;;;18.77;;
46437;SDS011;32137;48.728;9.142;2023-03-01T08:24:19;37.88;;;19.30;;
46437;SDS011;32137;48.728;9.142;2023-03-01T08:26:44;36.50;;;19.40;;
46437;SDS011;32137;48.728;9.142;2023-03-01T08:29:10;35.70;;;20.35;;
46437;SDS011;32137;48.728;9.142;2023-03-01T08:31:36;35.83;;;19.75;;
46437;SDS011;32137;48.728;9.142;2023-03-01T08:34:05;40.20;;;20.83;;
46437;SDS011;32137;48.728;9.142;2023-03-01T08:36:34;38.13;;;19.85;;
46437;SDS011;32137;48.728;9.142;2023-03-01T08:39:02;38.75;;;19.88;;
46437;SDS011;32137;48.728;9.142;2023-03-01T08:41:28;32.63;;;18.52;;
46437;SDS011;32137;48.728;9.142;2023-03-01T08:43:54;38.97;;;21.45;;
46437;SDS011;32137;48.728;9.142;2023-03-01T08:46:23;32.38;;;18.35;;
46437;SDS011;32137;48.728;9.142;2023-03-01T08:48:50;50.72;;;23.25;;
46437;SDS011;32137;48.728;9.142;2023-03-01T08:51:17;49.75;;;24.92;;
46437;SDS011;32137;48.728;9.142;2023-03-01T08:53:43;38.58;;;20.88;;
46437;SDS011;32137;48.728;9.142;2023-03-01T08:56:09;46.08;;;22.30;;
46437;SDS011;32137;48.728;9.142;2023-03-01T08:58:36;38.17;;;21.42;;
46437;SDS011;32137;48.728;9.142;2023-03-01T09:01:09;39.40;;;19.75;;
46437;SDS011;32137;48.728;9.142;2023-03-01T09:03:36;34.55;;;18.48;;
46437;SDS011;32137;48.728;9.142;2023-03-01T09:06:02;36.95;;;19.00;;
46437;SDS011;32137;48.728;9.142;2023-03-01T09:08:29;34.33;;;18.95;;
46437;SDS011;32137;48.728;9.142;2023-03-01T09:10:56;45.00;;;24.30;;
46437;SDS011;32137;48.728;9.142;2023-03-01T09:13:21;49.22;;;24.50;;
46437;SDS011;32137;48.728;9.142;2023-03-01T09:15:50;36.47;;;20.13;;
46437;SDS011;32137;48.728;9.142;2023-03-01T09:18:16;36.55;;;19.08;;
46437;SDS011;32137;48.728;9.142;2023-03-01T09:20:42;36.10;;;18.95;;
46437;SDS011;32137;48.728;9.142;2023-03-01T09:23:07;41.55;;;19.58;;
46437;SDS011;32137;48.728;9.142;2023-03-01T09:25:34;33.15;;;18.27;;
46437;SDS011;32137;48.728;9.142;2023-03-01T09:27:59;41.65;;;22.00;;
46437;SDS011;32137;48.728;9.142;2023-03-01T09:30:25;38.92;;;21.58;;
46437;SDS011;32137;48.728;9.142;2023-03-01T09:32:51;35.78;;;18.55;;
46437;SDS011;32137;48.728;9.142;2023-03-01T09:35:17;39.28;;;20.45;;
46437;SDS011;32137;48.728;9.142;2023-03-01T09:37:44;32.13;;;19.00;;
46437;SDS011;32137;48.728;9.142;2023-03-01T09:40:15;34.53;;;18.95;;
46437;SDS011;32137;48.728;9.142;2023-03-01T09:42:47;39.25;;;20.48;;
46437;SDS011;32137;48.728;9.142;2023-03-01T09:45:35;45.03;;;20.92;;
46437;SDS011;32137;48.728;9.142;2023-03-01T09:48:06;41.90;;;19.50;;
46437;SDS011;32137;48.728;9.142;2023-03-01T09:50:41;37.03;;;20.95;;
46437;SDS011;32137;48.728;9.142;2023-03-01T09:53:13;31.50;;;18.35;;
46437;SDS011;32137;48.728;9.142;2023-03-01T09:55:44;33.25;;;17.65;;
46437;SDS011;32137;48.728;9.142;2023-03-01T10:00:56;35.67;;;18.98;;
46437;SDS011;32137;48.728;9.142;2023-03-01T10:03:26;41.87;;;20.40;;
46437;SDS011;32137;48.728;9.142;2023-03-01T10:06:15;41.80;;;20.38;;
46437;SDS011;32137;48.728;9.142;2023-03-01T10:08:48;33.35;;;18.15;;
46437;SDS011;32137;48.728;9.142;2023-03-01T10:11:22;36.38;;;18.42;;
46437;SDS011;32137;48.728;9.142;2023-03-01T10:14:03;35.97;;;19.70;;
46437;SDS011;32137;48.728;9.142;2023-03-01T10:16:52;33.40;;;18.50;;
46437;SDS011;32137;48.728;9.142;2023-03-01T10:22:07;40.42;;;20.95;;
46437;SDS011;32137;48.728;9.142;2023-03-01T10:24:53;33.50;;;18.70;;
46437;SDS011;32137;48.728;9.142;2023-03-01T10:30:19;35.05;;;18.90;;
46437;SDS011;32137;48.728;9.142;2023-03-01T10:32:59;34.92;;;19.17;;
46437;SDS011;32137;48.728;9.142;2023-03-01T10:35:26;53.38;;;20.88;;
46437;SDS011;32137;48.728;9.142;2023-03-01T10:38:04;59.97;;;21.30;;
46437;SDS011;32137;48.728;9.142;2023-03-01T10:40:32;41.03;;;19.80;;
46437;SDS011;32137;48.728;9.142;2023-03-01T10:43:00;84.78;;;24.50;;
46437;SDS011;32137;48.728;9.142;2023-03-01T10:48:05;34.42;;;18.58;;
46437;SDS011;32137;48.728;9.142;2023-03-01T10:50:31;34.15;;;18.50;;
46437;SDS011;32137;48.728;9.142;2023-03-01T10:53:00;36.03;;;18.88;;
46437;SDS011;32137;48.728;9.142;2023-03-01T10:55:34;31.55;;;18.38;;
46437;SDS011;32137;48.728;9.142;2023-03-01T10:58:22;42.90;;;21.35;;
46437;SDS011;32137;48.728;9.142;2023-03-01T11:03:24;35.45;;;19.27;;
46437;SDS011;32137;48.728;9.142;2023-03-01T11:11:22;36.58;;;18.65;;
46437;SDS011;32137;48.728;9.142;2023-03-01T11:13:57;34.50;;;19.48;;
46437;SDS011;32137;48.728;9.142;2023-03-01T11:16:38;51.53;;;20.50;;
46437;SDS011;32137;48.728;9.142;2023-03-01T11:21:33;39.92;;;17.55;;
46437;SDS011;32137;48.728;9.142;2023-03-01T11:24:01;30.45;;;17.40;;
46437;SDS011;32137;48.728;9.142;2023-03-01T11:26:30;33.80;;;16.52;;
46437;SDS011;32137;48.728;9.142;2023-03-01T11:29:02;36.95;;;17.77;;
46437;SDS011;32137;48.728;9.142;2023-03-01T11:31:31;32.28;;;20.88;;
46437;SDS011;32137;48.728;9.142;2023-03-01T11:33:59;33.38;;;17.60;;
46437;SDS011;32137;48.728;9.142;2023-03-01T11:39:30;31.88;;;17.90;;
46437;SDS011;32137;48.728;9.142;2023-03-01T11:44:39;30.88;;;17.25;;
46437;SDS011;32137;48.728;9.142;2023-03-01T11:52:52;39.15;;;18.45;;
46437;SDS011;32137;48.728;9.142;2023-03-01T11:58:25;30.80;;;18.05;;
46437;SDS011;32137;48.728;9.142;2023-03-01T12:01:02;29.67;;;17.23;;
46437;SDS011;32137;48.728;9.142;2023-03-01T12:03:34;23.70;;;14.82;;
46437;SDS011;32137;48.728;9.142;2023-03-01T12:11:47;37.03;;;19.25;;
46437;SDS011;32137;48.728;9.142;2023-03-01T12:14:46;26.42;;;16.77;;
46437;SDS011;32137;48.728;9.142;2023-03-01T12:17:43;29.23;;;17.60;;
46437;SDS011;32137;48.728;9.142;2023-03-01T12:28:01;26.85;;;16.58;;
46437;SDS011;32137;48.728;9.142;2023-03-01T12:36:12;27.90;;;16.48;;
46437;SDS011;32137;48.728;9.142;2023-03-01T12:49:31;30.25;;;16.63;;
46437;SDS011;32137;48.728;9.142;2023-03-01T12:52:22;25.85;;;16.65;;
46437;SDS011;32137;48.728;9.142;2023-03-01T12:55:44;25.50;;;16.45;;
46437;SDS011;32137;48.728;9.142;2023-03-01T13:00:52;22.83;;;13.98;;
46437;SDS011;32137;48.728;9.142;2023-03-01T13:03:31;29.45;;;16.52;;
46437;SDS011;32137;48.728;9.142;2023-03-01T13:11:40;23.00;;;15.32;;
46437;SDS011;32137;48.728;9.142;2023-03-01T13:16:46;23.85;;;14.00;;
46437;SDS011;32137;48.728;9.142;2023-03-01T13:21:44;27.63;;;15.32;;
46437;SDS011;32137;48.728;9.142;2023-03-01T13:24:23;25.17;;;16.23;;
46437;SDS011;32137;48.728;9.142;2023-03-01T13:29:43;24.08;;;16.23;;
46437;SDS011;32137;48.728;9.142;2023-03-01T13:32:21;19.33;;;13.25;;
46437;SDS011;32137;48.728;9.142;2023-03-01T13:35:01;21.63;;;13.15;;
46437;SDS011;32137;48.728;9.142;2023-03-01T13:37:40;21.50;;;12.73;;
46437;SDS011;32137;48.728;9.142;2023-03-01T13:42:42;21.40;;;14.95;;
46437;SDS011;32137;48.728;9.142;2023-03-01T13:48:23;23.10;;;14.35;;
46437;SDS011;32137;48.728;9.142;2023-03-01T13:50:51;23.38;;;15.25;;
46437;SDS011;32137;48.728;9.142;2023-03-01T13:53:28;24.70;;;15.82;;
46437;SDS011;32137;48.728;9.142;2023-03-01T13:56:00;20.75;;;14.07;;
46437;SDS011;32137;48.728;9.142;2023-03-01T13:58:29;19.98;;;14.25;;
46437;SDS011;32137;48.728;9.142;2023-03-01T14:01:01;20.48;;;14.20;;
46437;SDS011;32137;48.728;9.142;2023-03-01T14:03:32;20.42;;;15.25;;
46437;SDS011;32137;48.728;9.142;2023-03-01T14:06:08;20.73;;;15.77;;
46437;SDS011;32137;48.728;9.142;2023-03-01T14:08:38;28.42;;;16.27;;
46437;SDS011;32137;48.728;9.142;2023-03-01T14:19:29;28.77;;;17.95;;
46437;SDS011;32137;48.728;9.142;2023-03-01T14:24:47;26.90;;;17.77;;
46437;SDS011;32137;48.728;9.142;2023-03-01T14:27:37;26.65;;;17.80;;
46437;SDS011;32137;48.728;9.142;2023-03-01T14:30:11;28.45;;;17.80;;
46437;SDS011;32137;48.728;9.142;2023-03-01T14:32:41;25.58;;;17.13;;
46437;SDS011;32137;48.728;9.142;2023-03-01T14:35:23;25.92;;;16.30;;
46437;SDS011;32137;48.728;9.142;2023-03-01T14:37:51;25.58;;;18.90;;
46437;SDS011;32137;48.728;9.142;2023-03-01T14:40:21;25.73;;;17.08;;
46437;SDS011;32137;48.728;9.142;2023-03-01T14:42:49;24.65;;;17.15;;
46437;SDS011;32137;48.728;9.142;2023-03-01T14:45:15;27.58;;;18.55;;
46437;SDS011;32137;48.728;9.142;2023-03-01T14:47:43;26.92;;;17.17;;
46437;SDS011;32137;48.728;9.142;2023-03-01T14:50:26;26.92;;;16.63;;
46437;SDS011;32137;48.728;9.142;2023-03-01T14:52:58;26.10;;;16.73;;
46437;SDS011;32137;48.728;9.142;2023-03-01T14:55:33;29.58;;;18.13;;
46437;SDS011;32137;48.728;9.142;2023-03-01T14:58:05;27.08;;;17.92;;
46437;SDS011;32137;48.728;9.142;2023-03-01T15:00:39;28.85;;;16.83;;
46437;SDS011;32137;48.728;9.142;2023-03-01T15:03:14;29.63;;;17.80;;
46437;SDS011;32137;48.728;9.142;2023-03-01T15:06:04;24.00;;;16.38;;
46437;SDS011;32137;48.728;9.142;2023-03-01T15:08:31;28.15;;;17.05;;
46437;SDS011;32137;48.728;9.142;2023-03-01T15:13:40;32.70;;;18.80;;
46437;SDS011;32137;48.728;9.142;2023-03-01T15:18:37;26.50;;;15.70;;
46437;SDS011;32137;48.728;9.142;2023-03-01T15:21:09;21.08;;;13.02;;
46437;SDS011;32137;48.728;9.142;2023-03-01T15:23:50;31.25;;;17.67;;
46437;SDS011;32137;48.728;9.142;2023-03-01T15:26:22;28.00;;;16.70;;
46437;SDS011;32137;48.728;9.142;2023-03-01T15:28:51;29.30;;;17.27;;
46437;SDS011;32137;48.728;9.142;2023-03-01T15:31:24;30.35;;;18.85;;
46437;SDS011;32137;48.728;9.142;2023-03-01T15:33:51;31.35;;;19.13;;
46437;SDS011;32137;48.728;9.142;2023-03-01T15:38:57;30.88;;;17.27;;
46437;SDS011;32137;48.728;9.142;2023-03-01T15:41:31;33.90;;;19.33;;
46437;SDS011;32137;48.728;9.142;2023-03-01T15:43:58;31.67;;;18.38;;
46437;SDS011;32137;48.728;9.142;2023-03-01T15:46:32;34.40;;;17.98;;
46437;SDS011;32137;48.728;9.142;2023-03-01T15:49:03;43.85;;;18.45;;
46437;SDS011;32137;48.728;9.142;2023-03-01T15:51:43;30.03;;;18.50;;
46437;SDS011;32137;48.728;9.142;2023-03-01T15:54:13;33.15;;;17.75;;
46437;SDS011;32137;48.728;9.142;2023-03-01T15:56:43;31.17;;;19.45;;
46437;SDS011;32137;48.728;9.142;2023-03-01T15:59:09;36.40;;;17.13;;
46437;SDS011;32137;48.728;9.142;2023-03-01T16:01:43;31.80;;;17.42;;
46437;SDS011;32137;48.728;9.142;2023-03-01T16:04:13;28.48;;;17.05;;
46437;SDS011;32137;48.728;9.142;2023-03-01T16:06:48;30.77;;;17.40;;
46437;SDS011;32137;48.728;9.142;2023-03-01T16:09:19;28.70;;;17.27;;
46437;SDS011;32137;48.728;9.142;2023-03-01T16:11:49;32.33;;;17.23;;
46437;SDS011;32137;48.728;9.142;2023-03-01T16:14:15;27.35;;;17.00;;
46437;SDS011;32137;48.728;9.142;2023-03-01T16:16:41;29.15;;;17.13;;
46437;SDS011;32137;48.728;9.142;2023-03-01T16:19:08;27.55;;;17.00;;
46437;SDS011;32137;48.728;9.142;2023-03-01T16:21:33;27.98;;;15.88;;
46437;SDS011;32137;48.728;9.142;2023-03-01T16:23:59;31.23;;;17.15;;
46437;SDS011;32137;48.728;9.142;2023-03-01T16:26:25;29.33;;;16.70;;
46437;SDS011;32137;48.728;9.142;2023-03-01T16:28:53;31.20;;;17.33;;
46437;SDS011;32137;48.728;9.142;2023-03-01T16:31:20;27.38;;;15.27;;
46437;SDS011;32137;48.728;9.142;2023-03-01T16:33:45;31.85;;;17.75;;